createdAt,value
2022-10-10T00:00:01.692Z,9.90
2022-10-10T00:02:31.124Z,9.90
2022-10-10T00:04:57.969Z,9.90
2022-10-10T00:07:24.792Z,9.90
2022-10-10T00:09:51.513Z,9.90
2022-10-10T00:12:18.238Z,9.90
2022-10-10T00:14:45.050Z,9.90
2022-10-10T00:17:11.759Z,9.90
2022-10-10T00:19:38.566Z,9.90
2022-10-10T00:22:05.401Z,9.90
2022-10-10T00:24:32.167Z,9.90
2022-10-10T00:26:58.948Z,9.90
2022-10-10T00:29:25.774Z,9.90
2022-10-10T00:31:52.471Z,9.90
2022-10-10T00:34:19.451Z,9.90
2022-10-10T00:36:46.283Z,9.90
2022-10-10T00:39:13.076Z,9.90
2022-10-10T00:41:39.854Z,9.90
2022-10-10T00:44:06.612Z,9.90
2022-10-10T00:46:34.064Z,9.90
2022-10-10T00:49:01.641Z,9.90
2022-10-10T00:51:28.484Z,9.90
2022-10-10T00:54:00.095Z,9.90
2022-10-10T00:56:30.720Z,9.90
2022-10-10T00:58:59.621Z,9.90
2022-10-10T01:01:26.806Z,9.80
2022-10-10T01:03:54.193Z,9.90
2022-10-10T01:06:20.896Z,9.80
2022-10-10T01:08:47.716Z,9.80
2022-10-10T01:11:33.281Z,9.80
2022-10-10T01:13:59.973Z,9.80
2022-10-10T01:16:34.158Z,9.80
2022-10-10T01:19:00.871Z,9.80
2022-10-10T01:21:27.834Z,9.70
2022-10-10T01:24:12.905Z,9.70
2022-10-10T01:26:51.876Z,9.70
2022-10-10T01:30:02.534Z,9.70
2022-10-10T01:32:53.363Z,9.70
2022-10-10T01:35:26.775Z,9.70
2022-10-10T01:37:59.572Z,9.70
2022-10-10T01:40:26.282Z,9.70
2022-10-10T01:42:58.378Z,9.70
2022-10-10T01:45:25.816Z,9.60
2022-10-10T01:47:54.245Z,9.70
2022-10-10T01:50:22.112Z,9.70
2022-10-10T01:52:52.328Z,9.60
2022-10-10T01:55:34.201Z,9.60
2022-10-10T01:58:07.227Z,9.60
2022-10-10T02:00:39.574Z,9.50
2022-10-10T02:03:13.899Z,9.50
2022-10-10T02:05:41.725Z,9.40
2022-10-10T02:08:10.851Z,9.50
2022-10-10T02:10:41.124Z,9.50
2022-10-10T02:13:10.324Z,9.50
2022-10-10T02:15:40.462Z,9.50
2022-10-10T02:18:09.291Z,9.50
2022-10-10T02:20:36.305Z,9.50
2022-10-10T02:23:04.677Z,9.50
2022-10-10T02:25:34.736Z,9.40
2022-10-10T02:28:01.540Z,9.50
2022-10-10T02:30:28.453Z,9.40
2022-10-10T02:32:58.541Z,9.40
2022-10-10T02:35:29.004Z,9.40
2022-10-10T02:37:56.110Z,9.40
2022-10-10T02:40:25.393Z,9.40
2022-10-10T02:43:21.982Z,9.40
2022-10-10T02:53:24.619Z,9.30
2022-10-10T02:56:26.989Z,9.20
2022-10-10T02:58:54.373Z,9.30
2022-10-10T03:01:21.323Z,9.20
2022-10-10T03:03:48.703Z,9.30
2022-10-10T03:06:18.022Z,9.20
2022-10-10T03:08:44.794Z,9.20
2022-10-10T03:11:11.717Z,9.20
2022-10-10T03:13:38.547Z,9.10
2022-10-10T03:16:06.887Z,9.10
2022-10-10T03:18:47.315Z,9.10
2022-10-10T03:21:16.433Z,9.10
2022-10-10T03:23:43.233Z,9.10
2022-10-10T03:26:10.204Z,9.10
2022-10-10T03:28:37.763Z,9.10
2022-10-10T03:31:04.755Z,9.10
2022-10-10T03:33:31.491Z,9.10
2022-10-10T03:35:58.226Z,9.10
2022-10-10T03:38:24.944Z,9.10
2022-10-10T03:40:51.911Z,9.10
2022-10-10T03:43:18.667Z,9.00
2022-10-10T03:45:46.019Z,9.10
2022-10-10T03:48:12.912Z,9.00
2022-10-10T03:50:39.713Z,9.10
2022-10-10T03:53:07.016Z,9.10
2022-10-10T03:55:33.867Z,9.00
2022-10-10T03:58:00.559Z,9.00
2022-10-10T04:00:27.372Z,9.00
2022-10-10T04:02:54.323Z,9.00
2022-10-10T04:05:21.564Z,9.00
2022-10-10T04:07:48.338Z,8.90
2022-10-10T04:10:15.290Z,9.00
2022-10-10T04:12:42.070Z,9.00
2022-10-10T04:15:09.127Z,9.00
2022-10-10T04:17:35.871Z,8.90
2022-10-10T04:20:02.923Z,8.90
2022-10-10T04:22:29.817Z,8.90
2022-10-10T04:24:56.662Z,8.90
2022-10-10T04:27:23.394Z,8.80
2022-10-10T04:29:50.235Z,8.80
2022-10-10T04:32:17.038Z,8.80
2022-10-10T04:34:43.758Z,8.80
2022-10-10T04:37:10.574Z,8.80
2022-10-10T04:39:37.375Z,8.80
2022-10-10T04:42:04.497Z,8.80
2022-10-10T04:44:31.352Z,8.80
2022-10-10T04:46:58.321Z,8.80
2022-10-10T04:49:25.414Z,8.70
2022-10-10T04:51:52.393Z,8.70
2022-10-10T04:54:25.233Z,8.70
2022-10-10T04:56:52.133Z,8.70
2022-10-10T04:59:19.209Z,8.70
2022-10-10T05:01:46.251Z,8.70
2022-10-10T05:04:14.251Z,8.70
2022-10-10T05:06:41.129Z,8.60
2022-10-10T05:09:07.922Z,8.60
2022-10-10T05:11:34.893Z,8.60
2022-10-10T05:14:01.634Z,8.60
2022-10-10T05:16:28.714Z,8.50
2022-10-10T05:18:57.263Z,8.50
2022-10-10T05:21:24.757Z,8.50
2022-10-10T05:23:51.604Z,8.50
2022-10-10T05:26:20.053Z,8.50
2022-10-10T05:28:47.668Z,8.50
2022-10-10T05:31:14.540Z,8.40
2022-10-10T05:33:41.416Z,8.50
2022-10-10T05:36:10.688Z,8.50
2022-10-10T05:38:38.326Z,8.50
2022-10-10T05:41:05.403Z,8.40
2022-10-10T05:43:32.315Z,8.40
2022-10-10T05:46:01.312Z,8.40
2022-10-10T05:48:28.334Z,8.40
2022-10-10T05:50:57.503Z,8.40
2022-10-10T05:53:25.121Z,8.40
2022-10-10T05:55:52.265Z,8.40
2022-10-10T05:58:19.103Z,8.40
2022-10-10T06:00:46.907Z,8.40
2022-10-10T06:03:17.023Z,8.40
2022-10-10T06:05:51.458Z,8.40
2022-10-10T06:08:18.391Z,8.40
2022-10-10T06:10:45.760Z,8.40
2022-10-10T06:13:14.834Z,8.40
2022-10-10T06:15:42.676Z,8.40
2022-10-10T06:18:11.851Z,8.40
2022-10-10T06:20:40.411Z,8.40
2022-10-10T06:23:08.368Z,8.40
2022-10-10T06:25:40.434Z,8.40
2022-10-10T06:28:08.263Z,8.40
2022-10-10T06:30:39.057Z,8.40
2022-10-10T06:33:05.936Z,8.50
2022-10-10T06:35:32.816Z,8.50
2022-10-10T06:37:59.695Z,8.50
2022-10-10T06:40:26.582Z,8.50
2022-10-10T06:42:57.791Z,8.50
2022-10-10T06:45:25.120Z,8.60
2022-10-10T06:47:51.991Z,8.60
2022-10-10T06:50:18.938Z,8.60
2022-10-10T06:52:46.078Z,8.60
2022-10-10T06:55:13.095Z,8.70
2022-10-10T06:57:40.980Z,8.70
2022-10-10T07:00:08.157Z,8.80
2022-10-10T07:02:40.994Z,8.80
2022-10-10T07:05:09.799Z,8.80
2022-10-10T07:07:36.719Z,8.80
2022-10-10T07:10:03.583Z,8.90
2022-10-10T07:12:33.718Z,8.90
2022-10-10T07:15:04.604Z,8.90
2022-10-10T07:20:26.122Z,8.90
2022-10-10T07:22:53.446Z,9.00
2022-10-10T07:25:20.423Z,9.00
2022-10-10T07:27:48.340Z,9.10
2022-10-10T07:30:15.466Z,9.10
2022-10-10T07:32:42.471Z,9.10
2022-10-10T07:35:12.421Z,9.20
2022-10-10T07:37:39.554Z,9.20
2022-10-10T07:40:08.589Z,9.20
2022-10-10T07:42:36.357Z,9.20
2022-10-10T07:45:03.662Z,9.30
2022-10-10T07:47:30.518Z,9.30
2022-10-10T07:49:57.309Z,9.40
2022-10-10T07:52:42.660Z,9.40
2022-10-10T07:55:10.303Z,9.40
2022-10-10T07:57:42.512Z,9.40
2022-10-10T08:00:10.361Z,9.50
2022-10-10T08:02:39.886Z,9.50
2022-10-10T08:05:07.826Z,9.60
2022-10-10T08:07:37.544Z,9.60
2022-10-10T08:10:04.804Z,9.60
2022-10-10T08:12:31.665Z,9.70
2022-10-10T08:15:02.026Z,9.70
2022-10-10T08:17:29.060Z,9.70
2022-10-10T08:19:59.843Z,9.80
2022-10-10T08:22:27.684Z,9.80
2022-10-10T08:24:54.458Z,9.90
2022-10-10T08:27:21.226Z,9.90
2022-10-10T08:29:48.096Z,9.90
2022-10-10T08:32:14.891Z,9.90
2022-10-10T08:34:41.630Z,10.00
2022-10-10T08:37:15.840Z,10.10
2022-10-10T08:39:42.536Z,10.10
2022-10-10T08:42:13.952Z,10.20
2022-10-10T08:44:43.657Z,10.20
2022-10-10T08:47:10.488Z,10.30
2022-10-10T08:49:37.185Z,10.40
2022-10-10T08:52:07.933Z,10.40
2022-10-10T08:54:35.575Z,10.50
2022-10-10T08:57:04.769Z,10.50
2022-10-10T08:59:34.820Z,10.50
2022-10-10T09:02:26.013Z,10.60
2022-10-10T09:04:53.330Z,10.70
2022-10-10T09:07:34.826Z,10.70
2022-10-10T09:10:01.566Z,10.80
2022-10-10T09:12:28.523Z,10.80
2022-10-10T09:15:05.527Z,10.90
2022-10-10T09:17:42.554Z,11.00
2022-10-10T09:20:28.123Z,11.00
2022-10-10T09:22:58.106Z,11.10
2022-10-10T09:25:30.000Z,11.10
2022-10-10T09:28:03.485Z,11.20
2022-10-10T09:30:32.350Z,11.20
2022-10-10T09:33:08.873Z,11.30
2022-10-10T09:35:37.732Z,11.40
2022-10-10T09:38:11.215Z,11.50
2022-10-10T09:40:41.643Z,11.50
2022-10-10T09:43:11.808Z,11.50
2022-10-10T09:45:41.544Z,11.60
2022-10-10T09:48:10.640Z,11.60
2022-10-10T09:50:40.401Z,11.70
2022-10-10T09:53:14.196Z,11.80
2022-10-10T09:55:41.309Z,11.90
2022-10-10T09:58:29.833Z,11.90
2022-10-10T10:01:10.272Z,11.90
2022-10-10T10:03:43.706Z,12.00
2022-10-10T10:06:15.341Z,12.10
2022-10-10T10:08:49.790Z,12.20
2022-10-10T10:11:27.814Z,12.20
2022-10-10T10:13:56.627Z,12.30
2022-10-10T10:16:31.480Z,12.30
2022-10-10T10:18:58.333Z,12.30
2022-10-10T10:21:27.505Z,12.40
2022-10-10T10:24:01.738Z,12.40
2022-10-10T10:26:31.994Z,12.50
2022-10-10T10:29:00.045Z,12.50
2022-10-10T10:31:44.652Z,12.60
2022-10-10T10:34:15.430Z,12.60
2022-10-10T10:36:52.088Z,12.70
2022-10-10T10:39:18.964Z,12.70
2022-10-10T10:41:45.678Z,12.80
2022-10-10T10:44:32.599Z,12.80
2022-10-10T10:46:59.328Z,12.90
2022-10-10T10:49:35.657Z,12.90
2022-10-10T10:52:11.620Z,13.00
2022-10-10T10:54:57.230Z,13.00
2022-10-10T10:57:36.839Z,13.10
2022-10-10T11:05:16.660Z,13.20
2022-10-10T11:06:08.850Z,13.30
2022-10-10T11:08:54.141Z,13.30
2022-10-10T11:11:40.963Z,13.40
2022-10-10T11:14:07.829Z,13.50
2022-10-10T11:16:48.871Z,13.50
2022-10-10T11:19:16.142Z,13.60
2022-10-10T11:22:02.418Z,13.60
2022-10-10T11:24:33.779Z,13.70
2022-10-10T11:27:04.105Z,13.70
2022-10-10T11:29:34.404Z,13.80
2022-10-10T11:32:03.077Z,13.90
2022-10-10T11:34:33.056Z,13.90
2022-10-10T11:37:01.901Z,13.90
2022-10-10T11:39:37.067Z,14.00
2022-10-10T11:42:07.724Z,14.00
2022-10-10T11:45:03.915Z,14.10
2022-10-10T11:47:57.175Z,14.10
2022-10-10T11:50:27.708Z,14.10
2022-10-10T11:52:54.548Z,14.20
2022-10-10T11:55:47.672Z,14.20
2022-10-10T11:58:14.690Z,14.20
2022-10-10T12:00:48.575Z,14.30
2022-10-10T12:03:15.637Z,14.30
2022-10-10T12:05:47.216Z,14.30
2022-10-10T12:08:18.390Z,14.40
2022-10-10T12:10:54.705Z,14.40
2022-10-10T12:13:27.983Z,14.40
2022-10-10T12:15:56.771Z,14.50
2022-10-10T12:18:28.258Z,14.50
2022-10-10T12:21:09.038Z,14.50
2022-10-10T12:23:36.033Z,14.50
2022-10-10T12:26:03.597Z,14.60
2022-10-10T12:28:54.174Z,14.60
2022-10-10T12:31:27.319Z,14.60
2022-10-10T12:34:05.240Z,14.70
2022-10-10T12:36:32.103Z,14.70
2022-10-10T12:39:02.082Z,14.70
2022-10-10T12:41:53.811Z,14.70
2022-10-10T12:44:32.870Z,14.80
2022-10-10T12:47:14.945Z,14.80
2022-10-10T12:49:58.127Z,14.80
2022-10-10T12:52:33.094Z,14.80
2022-10-10T12:55:06.892Z,14.80
2022-10-10T12:57:44.394Z,14.90
2022-10-10T13:00:15.069Z,14.90
2022-10-10T13:02:45.330Z,14.90
2022-10-10T13:05:18.103Z,14.90
2022-10-10T13:07:45.994Z,14.90
2022-10-10T13:10:33.383Z,14.90
2022-10-10T13:13:01.330Z,15.00
2022-10-10T13:15:28.819Z,15.00
2022-10-10T13:17:56.859Z,15.00
2022-10-10T13:20:36.038Z,15.00
2022-10-10T13:23:08.241Z,15.00
2022-10-10T13:25:37.684Z,15.00
2022-10-10T13:28:08.533Z,15.10
2022-10-10T13:30:37.502Z,15.10
2022-10-10T13:33:04.307Z,15.10
2022-10-10T13:35:32.372Z,15.10
2022-10-10T13:38:00.302Z,15.10
2022-10-10T13:40:27.892Z,15.10
2022-10-10T13:42:55.100Z,15.20
2022-10-10T13:45:30.164Z,15.20
2022-10-10T13:48:11.146Z,15.20
2022-10-10T13:50:43.908Z,15.20
2022-10-10T13:53:29.312Z,15.20
2022-10-10T13:55:59.404Z,15.20
2022-10-10T13:58:27.731Z,15.20
2022-10-10T14:00:59.137Z,15.20
2022-10-10T14:03:26.370Z,15.20
2022-10-10T14:05:53.551Z,15.20
2022-10-10T14:08:21.675Z,15.20
2022-10-10T14:11:02.839Z,15.20
2022-10-10T14:13:32.123Z,15.20
2022-10-10T14:16:17.729Z,15.20
2022-10-10T14:18:45.122Z,15.20
2022-10-10T14:21:12.167Z,15.20
2022-10-10T14:23:40.162Z,15.20
2022-10-10T14:26:11.539Z,15.20
2022-10-10T14:28:39.035Z,15.20
2022-10-10T14:31:06.114Z,15.20
2022-10-10T14:33:33.115Z,15.20
2022-10-10T14:36:00.523Z,15.20
2022-10-10T14:38:27.523Z,15.20
2022-10-10T14:40:54.828Z,15.20
2022-10-10T14:43:22.657Z,15.20
2022-10-10T14:45:50.028Z,15.30
2022-10-10T14:48:17.338Z,15.30
2022-10-10T14:50:46.153Z,15.30
2022-10-10T14:53:13.791Z,15.30
2022-10-10T14:55:43.803Z,15.30
2022-10-10T14:58:18.194Z,15.30
2022-10-10T15:00:45.585Z,15.30
2022-10-10T15:03:12.733Z,15.20
2022-10-10T15:05:39.869Z,15.20
2022-10-10T15:08:06.891Z,15.20
2022-10-10T15:10:34.768Z,15.20
2022-10-10T15:13:02.508Z,15.20
2022-10-10T15:15:29.391Z,15.20
2022-10-10T15:17:59.623Z,15.20
2022-10-10T15:20:31.162Z,15.20
2022-10-10T15:23:05.472Z,15.10
2022-10-10T15:25:33.965Z,15.10
2022-10-10T15:28:02.384Z,15.20
2022-10-10T15:30:29.471Z,15.20
2022-10-10T15:32:56.315Z,15.10
2022-10-10T15:35:24.007Z,15.10
2022-10-10T15:37:52.003Z,15.00
2022-10-10T15:40:20.829Z,15.00
2022-10-10T15:42:50.521Z,15.00
2022-10-10T15:45:31.266Z,15.00
2022-10-10T15:48:04.839Z,14.90
2022-10-10T15:50:32.519Z,14.90
2022-10-10T15:52:59.303Z,14.90
2022-10-10T15:55:26.489Z,14.80
2022-10-10T15:57:53.461Z,14.80
2022-10-10T16:00:20.470Z,14.80
2022-10-10T16:02:47.497Z,14.80
2022-10-10T16:05:14.456Z,14.80
2022-10-10T16:07:46.966Z,14.80
2022-10-10T16:10:15.296Z,14.80
2022-10-10T16:12:42.181Z,14.70
2022-10-10T16:15:09.496Z,14.70
2022-10-10T16:17:36.506Z,14.70
2022-10-10T16:20:05.541Z,14.70
2022-10-10T16:22:32.793Z,14.60
2022-10-10T16:27:46.828Z,14.50
2022-10-10T16:30:13.865Z,14.50
2022-10-10T16:32:42.604Z,14.50
2022-10-10T16:35:13.409Z,14.50
2022-10-10T16:37:40.272Z,14.50
2022-10-10T16:40:09.295Z,14.40
2022-10-10T16:42:36.161Z,14.30
2022-10-10T16:45:04.577Z,14.30
2022-10-10T16:47:31.563Z,14.30
2022-10-10T16:49:58.473Z,14.30
2022-10-10T16:52:25.263Z,14.20
2022-10-10T16:54:55.939Z,14.20
2022-10-10T16:57:22.820Z,14.10
2022-10-10T16:59:49.842Z,14.10
2022-10-10T17:02:16.915Z,14.00
2022-10-10T17:04:53.963Z,14.00
2022-10-10T17:07:21.044Z,14.00
2022-10-10T17:09:47.875Z,13.90
2022-10-10T17:12:14.819Z,13.80
2022-10-10T17:14:41.700Z,13.70
2022-10-10T17:17:13.119Z,13.70
2022-10-10T17:19:40.651Z,13.60
2022-10-10T17:22:07.657Z,13.60
2022-10-10T17:24:34.552Z,13.50
2022-10-10T17:27:01.657Z,13.50
2022-10-10T17:29:29.499Z,13.50
2022-10-10T17:31:56.350Z,13.40
2022-10-10T17:37:46.648Z,13.20
2022-10-10T17:43:20.555Z,13.10
2022-10-10T17:45:47.585Z,13.00
2022-10-10T17:48:14.428Z,13.00
2022-10-10T17:50:46.199Z,13.00
2022-10-10T17:53:13.089Z,13.00
2022-10-10T17:56:33.519Z,13.00
2022-10-10T17:59:01.802Z,13.00
2022-10-10T18:01:31.189Z,13.00
2022-10-10T18:03:58.662Z,13.00
2022-10-10T18:06:25.947Z,12.90
2022-10-10T18:08:53.689Z,12.90
2022-10-10T18:11:24.970Z,12.80
2022-10-10T18:14:00.864Z,12.80
2022-10-10T18:16:29.446Z,12.80
2022-10-10T18:18:58.421Z,12.80
2022-10-10T18:21:30.325Z,12.70
2022-10-10T18:24:00.798Z,12.70
2022-10-10T18:26:31.701Z,12.70
2022-10-10T18:28:58.777Z,12.70
2022-10-10T18:31:35.430Z,12.70
2022-10-10T18:34:05.469Z,12.60
2022-10-10T18:36:33.809Z,12.50
2022-10-10T18:39:01.366Z,12.50
2022-10-10T18:41:33.752Z,12.50
2022-10-10T18:44:07.005Z,12.50
2022-10-10T18:46:38.116Z,12.50
2022-10-10T18:49:05.538Z,12.40
2022-10-10T18:51:32.485Z,12.40
2022-10-10T18:54:03.317Z,12.40
2022-10-10T18:56:31.329Z,12.30
2022-10-10T18:58:59.373Z,12.20
2022-10-10T19:01:29.059Z,12.20
2022-10-10T19:03:59.266Z,12.10
2022-10-10T19:06:26.443Z,12.10
2022-10-10T19:08:55.452Z,12.00
2022-10-10T19:11:32.791Z,12.00
2022-10-10T19:14:00.750Z,11.90
2022-10-10T19:16:27.838Z,11.90
2022-10-10T19:19:02.425Z,11.90
2022-10-10T19:21:31.806Z,11.80
2022-10-10T19:24:01.041Z,11.80
2022-10-10T19:26:33.224Z,11.90
2022-10-10T19:29:07.064Z,11.80
2022-10-10T19:31:35.059Z,11.80
2022-10-10T19:34:01.907Z,11.80
2022-10-10T19:36:30.913Z,11.80
2022-10-10T19:38:59.512Z,11.80
2022-10-10T19:41:54.840Z,11.70
2022-10-10T19:44:25.835Z,11.70
2022-10-10T19:46:56.196Z,11.70
2022-10-10T19:49:24.234Z,11.60
2022-10-10T19:51:54.168Z,11.60
2022-10-10T19:54:25.962Z,11.60
2022-10-10T19:56:55.772Z,11.60
2022-10-10T19:59:23.672Z,11.60
2022-10-10T20:01:54.604Z,11.60
2022-10-10T20:04:21.575Z,11.50
2022-10-10T20:06:50.414Z,11.50
2022-10-10T20:09:17.573Z,11.50
2022-10-10T20:11:45.459Z,11.50
2022-10-10T20:14:12.386Z,11.50
2022-10-10T20:16:42.868Z,11.40
2022-10-10T20:19:09.790Z,11.40
2022-10-10T20:21:45.344Z,11.40
2022-10-10T20:24:15.596Z,11.30
2022-10-10T20:26:42.862Z,11.30
2022-10-10T20:29:09.707Z,11.30
2022-10-10T20:31:37.346Z,11.20
2022-10-10T20:34:05.181Z,11.20
2022-10-10T20:36:32.755Z,11.20
2022-10-10T20:39:00.727Z,11.20
2022-10-10T20:41:52.736Z,11.10
2022-10-10T20:44:20.355Z,11.10
2022-10-10T20:46:47.163Z,11.10
2022-10-10T20:49:18.436Z,11.10
2022-10-10T20:51:48.797Z,11.10
2022-10-10T20:54:18.740Z,11.10
2022-10-10T20:56:45.500Z,11.10
2022-10-10T20:59:13.046Z,11.00
2022-10-10T21:01:40.379Z,11.00
2022-10-10T21:04:10.465Z,11.00
2022-10-10T21:06:38.630Z,11.00
2022-10-10T21:09:07.299Z,11.00
2022-10-10T21:11:34.544Z,11.00
2022-10-10T21:14:01.933Z,11.00
2022-10-10T21:16:33.314Z,10.90
2022-10-10T21:19:00.115Z,10.90
2022-10-10T21:21:30.838Z,10.90
2022-10-10T21:23:57.993Z,10.90
2022-10-10T21:26:26.358Z,10.80
2022-10-10T21:28:53.652Z,10.90
2022-10-10T21:31:22.117Z,10.80
2022-10-10T21:33:49.054Z,10.80
2022-10-10T21:36:16.712Z,10.70
2022-10-10T21:38:43.981Z,10.70
2022-10-10T21:41:13.172Z,10.80
2022-10-10T21:43:44.863Z,10.80
2022-10-10T21:46:15.970Z,10.70
2022-10-10T21:48:42.861Z,10.70
2022-10-10T21:51:09.610Z,10.70
2022-10-10T21:53:36.852Z,10.70
2022-10-10T21:56:05.783Z,10.70
2022-10-10T21:58:36.768Z,10.70
2022-10-10T22:01:10.910Z,10.70
2022-10-10T22:03:38.047Z,10.70
2022-10-10T22:06:06.703Z,10.70
2022-10-10T22:08:33.993Z,10.60
2022-10-10T22:11:04.155Z,10.60
2022-10-10T22:13:32.443Z,10.60
2022-10-10T22:15:59.425Z,10.60
2022-10-10T22:18:29.640Z,10.60
2022-10-10T22:20:56.740Z,10.50
2022-10-10T22:23:23.752Z,10.60
2022-10-10T22:25:51.820Z,10.60
2022-10-10T22:28:19.482Z,10.50
2022-10-10T22:30:56.102Z,10.50
2022-10-10T22:33:23.025Z,10.50
2022-10-10T22:35:49.850Z,10.40
2022-10-10T22:38:19.020Z,10.40
2022-10-10T22:40:46.105Z,10.40
2022-10-10T22:43:12.833Z,10.30
2022-10-10T22:45:40.624Z,10.30
2022-10-10T22:48:17.647Z,10.30
2022-10-10T22:51:12.809Z,10.30
2022-10-10T22:53:40.671Z,10.30
2022-10-10T22:56:15.576Z,10.30
2022-10-10T22:58:43.880Z,10.30
2022-10-10T23:01:17.413Z,10.20
2022-10-10T23:03:44.492Z,10.20
2022-10-10T23:06:11.415Z,10.20
2022-10-10T23:08:38.338Z,10.20
2022-10-10T23:11:05.283Z,10.20
2022-10-10T23:13:40.615Z,10.20
2022-10-10T23:16:11.780Z,10.20
2022-10-10T23:18:46.083Z,10.20
2022-10-10T23:21:13.030Z,10.20
2022-10-10T23:23:39.921Z,10.20
2022-10-10T23:26:11.049Z,10.20
2022-10-10T23:28:40.135Z,10.20
2022-10-10T23:31:08.386Z,10.20
2022-10-10T23:33:37.339Z,10.10
2022-10-10T23:36:06.063Z,10.10
2022-10-10T23:38:33.632Z,10.10
2022-10-10T23:41:00.624Z,10.10
2022-10-10T23:43:27.726Z,10.10
2022-10-10T23:45:54.688Z,10.10
2022-10-10T23:48:21.638Z,10.00
2022-10-10T23:50:48.578Z,10.00
2022-10-10T23:53:15.440Z,10.00
2022-10-10T23:55:42.588Z,10.00
2022-10-10T23:58:09.548Z,9.90
